sensor_id;sensor_type;location;lat;lon;timestamp;temperature;humidity
55721;DHT22;41626;53.098;6.168;2022-07-23T00:00:52;13.80;99.90
55721;DHT22;41626;53.098;6.168;2022-07-23T00:03:18;13.80;99.90
55721;DHT22;41626;53.098;6.168;2022-07-23T00:05:44;13.70;99.90
55721;DHT22;41626;53.098;6.168;2022-07-23T00:08:09;13.70;99.90
55721;DHT22;41626;53.098;6.168;2022-07-23T00:10:35;13.70;99.90
55721;DHT22;41626;53.098;6.168;2022-07-23T00:13:02;13.60;99.90
55721;DHT22;41626;53.098;6.168;2022-07-23T00:15:28;13.70;99.90
55721;DHT22;41626;53.098;6.168;2022-07-23T00:17:54;13.60;99.90
55721;DHT22;41626;53.098;6.168;2022-07-23T00:20:19;13.60;99.90
55721;DHT22;41626;53.098;6.168;2022-07-23T00:22:49;13.60;99.90
55721;DHT22;41626;53.098;6.168;2022-07-23T00:25:15;13.60;99.90
55721;DHT22;41626;53.098;6.168;2022-07-23T00:27:42;13.60;99.90
55721;DHT22;41626;53.098;6.168;2022-07-23T00:30:08;13.50;99.90
55721;DHT22;41626;53.098;6.168;2022-07-23T00:32:48;13.60;99.90
55721;DHT22;41626;53.098;6.168;2022-07-23T00:35:15;13.60;99.90
55721;DHT22;41626;53.098;6.168;2022-07-23T00:37:41;13.60;99.90
55721;DHT22;41626;53.098;6.168;2022-07-23T00:40:07;13.50;99.90
55721;DHT22;41626;53.098;6.168;2022-07-23T00:42:33;13.50;99.90
55721;DHT22;41626;53.098;6.168;2022-07-23T00:44:59;13.60;99.90
55721;DHT22;41626;53.098;6.168;2022-07-23T00:47:24;13.40;99.90
55721;DHT22;41626;53.098;6.168;2022-07-23T00:49:51;13.40;99.90
55721;DHT22;41626;53.098;6.168;2022-07-23T00:52:17;13.40;99.90
55721;DHT22;41626;53.098;6.168;2022-07-23T00:54:42;13.30;99.90
55721;DHT22;41626;53.098;6.168;2022-07-23T00:57:09;13.40;99.90
55721;DHT22;41626;53.098;6.168;2022-07-23T00:59:34;13.20;99.90
55721;DHT22;41626;53.098;6.168;2022-07-23T01:02:00;13.20;99.90
55721;DHT22;41626;53.098;6.168;2022-07-23T01:04:26;13.20;99.90
55721;DHT22;41626;53.098;6.168;2022-07-23T01:06:51;13.10;99.90
55721;DHT22;41626;53.098;6.168;2022-07-23T01:09:18;13.30;99.90
55721;DHT22;41626;53.098;6.168;2022-07-23T01:11:43;13.20;99.90
55721;DHT22;41626;53.098;6.168;2022-07-23T01:16:35;13.20;99.90
55721;DHT22;41626;53.098;6.168;2022-07-23T01:19:00;13.10;99.90
55721;DHT22;41626;53.098;6.168;2022-07-23T01:21:26;13.10;99.90
55721;DHT22;41626;53.098;6.168;2022-07-23T01:23:52;13.10;99.90
55721;DHT22;41626;53.098;6.168;2022-07-23T01:26:18;13.10;99.90
55721;DHT22;41626;53.098;6.168;2022-07-23T01:28:43;13.10;99.90
55721;DHT22;41626;53.098;6.168;2022-07-23T01:31:09;13.00;99.90
55721;DHT22;41626;53.098;6.168;2022-07-23T01:33:35;12.90;99.90
55721;DHT22;41626;53.098;6.168;2022-07-23T01:36:00;13.00;99.90
55721;DHT22;41626;53.098;6.168;2022-07-23T01:38:26;12.80;99.90
55721;DHT22;41626;53.098;6.168;2022-07-23T01:40:52;12.80;99.90
55721;DHT22;41626;53.098;6.168;2022-07-23T01:43:17;12.80;99.90
55721;DHT22;41626;53.098;6.168;2022-07-23T01:45:43;12.80;99.90
55721;DHT22;41626;53.098;6.168;2022-07-23T01:48:10;12.80;99.90
55721;DHT22;41626;53.098;6.168;2022-07-23T01:50:35;12.70;99.90
55721;DHT22;41626;53.098;6.168;2022-07-23T01:53:01;12.70;99.90
55721;DHT22;41626;53.098;6.168;2022-07-23T01:55:26;12.70;99.90
55721;DHT22;41626;53.098;6.168;2022-07-23T01:57:52;12.80;99.90
55721;DHT22;41626;53.098;6.168;2022-07-23T02:00:18;12.80;99.90
55721;DHT22;41626;53.098;6.168;2022-07-23T02:02:44;12.70;99.90
55721;DHT22;41626;53.098;6.168;2022-07-23T02:05:09;12.70;99.90
55721;DHT22;41626;53.098;6.168;2022-07-23T02:07:35;12.60;99.90
55721;DHT22;41626;53.098;6.168;2022-07-23T02:10:01;12.50;99.90
55721;DHT22;41626;53.098;6.168;2022-07-23T02:12:26;12.60;99.90
55721;DHT22;41626;53.098;6.168;2022-07-23T02:14:52;12.60;99.90
55721;DHT22;41626;53.098;6.168;2022-07-23T02:17:18;12.50;99.90
55721;DHT22;41626;53.098;6.168;2022-07-23T02:19:43;12.50;99.90
55721;DHT22;41626;53.098;6.168;2022-07-23T02:22:09;12.50;99.90
55721;DHT22;41626;53.098;6.168;2022-07-23T02:24:34;12.40;99.90
55721;DHT22;41626;53.098;6.168;2022-07-23T02:27:00;12.50;99.90
55721;DHT22;41626;53.098;6.168;2022-07-23T02:29:26;12.40;99.90
55721;DHT22;41626;53.098;6.168;2022-07-23T02:31:51;12.40;99.90
55721;DHT22;41626;53.098;6.168;2022-07-23T02:34:17;12.50;99.90
55721;DHT22;41626;53.098;6.168;2022-07-23T02:36:42;12.40;99.90
55721;DHT22;41626;53.098;6.168;2022-07-23T02:39:08;12.20;99.90
55721;DHT22;41626;53.098;6.168;2022-07-23T02:41:34;12.20;99.90
55721;DHT22;41626;53.098;6.168;2022-07-23T02:43:59;12.30;99.90
55721;DHT22;41626;53.098;6.168;2022-07-23T02:46:25;12.20;99.90
55721;DHT22;41626;53.098;6.168;2022-07-23T02:48:51;12.20;99.90
55721;DHT22;41626;53.098;6.168;2022-07-23T02:51:16;12.20;99.90
55721;DHT22;41626;53.098;6.168;2022-07-23T02:53:42;12.30;99.90
55721;DHT22;41626;53.098;6.168;2022-07-23T02:56:08;12.20;99.90
55721;DHT22;41626;53.098;6.168;2022-07-23T02:58:34;12.30;99.90
55721;DHT22;41626;53.098;6.168;2022-07-23T03:00:59;12.20;99.90
55721;DHT22;41626;53.098;6.168;2022-07-23T03:03:25;12.30;99.90
55721;DHT22;41626;53.098;6.168;2022-07-23T03:05:50;12.20;99.90
55721;DHT22;41626;53.098;6.168;2022-07-23T03:08:16;12.10;99.90
55721;DHT22;41626;53.098;6.168;2022-07-23T03:10:42;12.10;99.90
55721;DHT22;41626;53.098;6.168;2022-07-23T03:13:07;12.20;99.90
55721;DHT22;41626;53.098;6.168;2022-07-23T03:15:33;12.10;99.90
55721;DHT22;41626;53.098;6.168;2022-07-23T03:17:58;12.10;99.90
55721;DHT22;41626;53.098;6.168;2022-07-23T03:20:24;12.20;99.90
55721;DHT22;41626;53.098;6.168;2022-07-23T03:22:50;12.10;99.90
55721;DHT22;41626;53.098;6.168;2022-07-23T03:25:15;12.20;99.90
55721;DHT22;41626;53.098;6.168;2022-07-23T03:27:41;12.00;99.90
55721;DHT22;41626;53.098;6.168;2022-07-23T03:30:07;12.10;99.90
55721;DHT22;41626;53.098;6.168;2022-07-23T03:32:33;12.10;99.90
55721;DHT22;41626;53.098;6.168;2022-07-23T03:34:59;12.00;99.90
55721;DHT22;41626;53.098;6.168;2022-07-23T03:37:26;12.00;99.90
55721;DHT22;41626;53.098;6.168;2022-07-23T03:39:51;12.00;99.90
55721;DHT22;41626;53.098;6.168;2022-07-23T03:42:17;12.00;99.90
55721;DHT22;41626;53.098;6.168;2022-07-23T03:44:42;12.00;99.90
55721;DHT22;41626;53.098;6.168;2022-07-23T03:47:08;12.00;99.90
55721;DHT22;41626;53.098;6.168;2022-07-23T03:49:34;12.00;99.90
55721;DHT22;41626;53.098;6.168;2022-07-23T03:52:00;12.00;99.90
55721;DHT22;41626;53.098;6.168;2022-07-23T03:54:25;12.00;99.90
55721;DHT22;41626;53.098;6.168;2022-07-23T03:56:51;12.10;99.90
55721;DHT22;41626;53.098;6.168;2022-07-23T03:59:17;12.10;99.90
55721;DHT22;41626;53.098;6.168;2022-07-23T04:01:42;12.10;99.90
55721;DHT22;41626;53.098;6.168;2022-07-23T04:04:08;12.00;99.90
55721;DHT22;41626;53.098;6.168;2022-07-23T04:06:34;12.00;99.90
55721;DHT22;41626;53.098;6.168;2022-07-23T04:09:00;12.10;99.90
55721;DHT22;41626;53.098;6.168;2022-07-23T04:11:26;12.00;99.90
55721;DHT22;41626;53.098;6.168;2022-07-23T04:13:51;12.10;99.90
55721;DHT22;41626;53.098;6.168;2022-07-23T04:16:17;12.10;99.90
55721;DHT22;41626;53.098;6.168;2022-07-23T04:18:43;12.20;99.90
55721;DHT22;41626;53.098;6.168;2022-07-23T04:21:08;12.20;99.90
55721;DHT22;41626;53.098;6.168;2022-07-23T04:23:34;12.30;99.90
55721;DHT22;41626;53.098;6.168;2022-07-23T04:26:00;12.20;99.90
55721;DHT22;41626;53.098;6.168;2022-07-23T04:28:26;12.20;99.90
55721;DHT22;41626;53.098;6.168;2022-07-23T04:30:51;12.60;99.90
55721;DHT22;41626;53.098;6.168;2022-07-23T04:33:17;12.40;99.90
55721;DHT22;41626;53.098;6.168;2022-07-23T04:35:43;12.50;99.90
55721;DHT22;41626;53.098;6.168;2022-07-23T04:38:08;12.40;99.90
55721;DHT22;41626;53.098;6.168;2022-07-23T04:40:34;12.30;99.90
55721;DHT22;41626;53.098;6.168;2022-07-23T04:43:00;12.50;99.90
55721;DHT22;41626;53.098;6.168;2022-07-23T04:45:25;12.40;99.90
55721;DHT22;41626;53.098;6.168;2022-07-23T04:47:51;12.40;99.90
55721;DHT22;41626;53.098;6.168;2022-07-23T04:50:17;12.50;99.90
55721;DHT22;41626;53.098;6.168;2022-07-23T04:52:47;12.50;99.90
55721;DHT22;41626;53.098;6.168;2022-07-23T04:55:14;12.50;99.90
55721;DHT22;41626;53.098;6.168;2022-07-23T04:57:39;12.60;99.90
55721;DHT22;41626;53.098;6.168;2022-07-23T05:00:06;12.70;99.90
55721;DHT22;41626;53.098;6.168;2022-07-23T05:02:32;12.70;99.90
55721;DHT22;41626;53.098;6.168;2022-07-23T05:04:57;12.70;99.90
55721;DHT22;41626;53.098;6.168;2022-07-23T05:07:23;12.80;99.90
55721;DHT22;41626;53.098;6.168;2022-07-23T05:09:49;12.90;99.90
55721;DHT22;41626;53.098;6.168;2022-07-23T05:12:15;13.00;99.90
55721;DHT22;41626;53.098;6.168;2022-07-23T05:14:40;13.00;99.90
55721;DHT22;41626;53.098;6.168;2022-07-23T05:17:07;13.10;99.90
55721;DHT22;41626;53.098;6.168;2022-07-23T05:19:34;13.10;99.90
55721;DHT22;41626;53.098;6.168;2022-07-23T05:22:00;13.20;99.90
55721;DHT22;41626;53.098;6.168;2022-07-23T05:24:26;13.20;99.90
55721;DHT22;41626;53.098;6.168;2022-07-23T05:26:52;13.30;99.90
55721;DHT22;41626;53.098;6.168;2022-07-23T05:29:18;13.40;99.90
55721;DHT22;41626;53.098;6.168;2022-07-23T05:31:43;13.40;99.90
55721;DHT22;41626;53.098;6.168;2022-07-23T05:34:09;13.60;99.90
55721;DHT22;41626;53.098;6.168;2022-07-23T05:36:35;13.70;99.90
55721;DHT22;41626;53.098;6.168;2022-07-23T05:39:00;13.60;99.90
55721;DHT22;41626;53.098;6.168;2022-07-23T05:41:26;13.80;99.90
55721;DHT22;41626;53.098;6.168;2022-07-23T05:43:52;13.90;99.90
55721;DHT22;41626;53.098;6.168;2022-07-23T05:46:17;13.90;99.90
55721;DHT22;41626;53.098;6.168;2022-07-23T05:48:43;14.00;99.90
55721;DHT22;41626;53.098;6.168;2022-07-23T05:51:11;14.00;99.90
55721;DHT22;41626;53.098;6.168;2022-07-23T05:53:37;14.10;99.90
55721;DHT22;41626;53.098;6.168;2022-07-23T05:56:04;14.30;99.90
55721;DHT22;41626;53.098;6.168;2022-07-23T05:58:29;14.40;99.90
55721;DHT22;41626;53.098;6.168;2022-07-23T06:00:55;14.40;99.90
55721;DHT22;41626;53.098;6.168;2022-07-23T06:03:20;14.50;99.90
55721;DHT22;41626;53.098;6.168;2022-07-23T06:05:46;14.50;99.90
55721;DHT22;41626;53.098;6.168;2022-07-23T06:08:12;14.70;99.90
55721;DHT22;41626;53.098;6.168;2022-07-23T06:10:37;14.60;99.90
55721;DHT22;41626;53.098;6.168;2022-07-23T06:13:03;14.80;99.90
55721;DHT22;41626;53.098;6.168;2022-07-23T06:15:29;14.90;99.90
55721;DHT22;41626;53.098;6.168;2022-07-23T06:17:55;15.00;99.90
55721;DHT22;41626;53.098;6.168;2022-07-23T06:20:21;15.00;99.90
55721;DHT22;41626;53.098;6.168;2022-07-23T06:22:47;15.10;99.90
55721;DHT22;41626;53.098;6.168;2022-07-23T06:25:12;15.20;99.90
55721;DHT22;41626;53.098;6.168;2022-07-23T06:27:38;15.20;99.90
55721;DHT22;41626;53.098;6.168;2022-07-23T06:30:04;15.30;99.90
55721;DHT22;41626;53.098;6.168;2022-07-23T06:32:31;15.30;99.90
55721;DHT22;41626;53.098;6.168;2022-07-23T06:34:56;15.40;99.90
55721;DHT22;41626;53.098;6.168;2022-07-23T06:37:22;15.50;99.90
55721;DHT22;41626;53.098;6.168;2022-07-23T06:39:47;15.60;99.90
55721;DHT22;41626;53.098;6.168;2022-07-23T06:42:13;15.60;99.90
55721;DHT22;41626;53.098;6.168;2022-07-23T06:44:40;15.70;99.90
55721;DHT22;41626;53.098;6.168;2022-07-23T06:47:06;15.80;99.90
55721;DHT22;41626;53.098;6.168;2022-07-23T06:49:31;15.80;99.90
55721;DHT22;41626;53.098;6.168;2022-07-23T06:51:57;15.80;99.90
55721;DHT22;41626;53.098;6.168;2022-07-23T06:54:22;15.80;99.90
55721;DHT22;41626;53.098;6.168;2022-07-23T06:56:48;15.90;99.90
55721;DHT22;41626;53.098;6.168;2022-07-23T06:59:14;15.90;99.90
55721;DHT22;41626;53.098;6.168;2022-07-23T07:01:39;16.10;99.90
55721;DHT22;41626;53.098;6.168;2022-07-23T07:04:05;16.20;99.90
55721;DHT22;41626;53.098;6.168;2022-07-23T07:06:31;16.60;99.90
55721;DHT22;41626;53.098;6.168;2022-07-23T07:08:56;16.70;99.90
55721;DHT22;41626;53.098;6.168;2022-07-23T07:11:22;17.30;99.90
55721;DHT22;41626;53.098;6.168;2022-07-23T07:13:49;17.90;99.90
55721;DHT22;41626;53.098;6.168;2022-07-23T07:16:15;18.50;99.90
55721;DHT22;41626;53.098;6.168;2022-07-23T07:18:40;19.60;99.90
55721;DHT22;41626;53.098;6.168;2022-07-23T07:21:06;20.80;99.90
55721;DHT22;41626;53.098;6.168;2022-07-23T07:23:31;21.00;99.90
55721;DHT22;41626;53.098;6.168;2022-07-23T07:25:57;21.70;99.90
55721;DHT22;41626;53.098;6.168;2022-07-23T07:28:23;21.90;99.90
55721;DHT22;41626;53.098;6.168;2022-07-23T07:30:48;22.50;99.90
55721;DHT22;41626;53.098;6.168;2022-07-23T07:33:14;22.10;99.90
55721;DHT22;41626;53.098;6.168;2022-07-23T07:35:40;23.00;99.90
55721;DHT22;41626;53.098;6.168;2022-07-23T07:38:05;21.40;99.90
55721;DHT22;41626;53.098;6.168;2022-07-23T07:40:31;20.50;99.90
55721;DHT22;41626;53.098;6.168;2022-07-23T07:42:57;20.00;99.90
55721;DHT22;41626;53.098;6.168;2022-07-23T07:45:23;19.70;99.90
55721;DHT22;41626;53.098;6.168;2022-07-23T07:47:50;19.70;99.90
55721;DHT22;41626;53.098;6.168;2022-07-23T07:50:16;19.40;99.90
55721;DHT22;41626;53.098;6.168;2022-07-23T07:52:42;19.30;99.90
55721;DHT22;41626;53.098;6.168;2022-07-23T07:55:09;19.10;99.90
55721;DHT22;41626;53.098;6.168;2022-07-23T07:57:37;19.00;99.90
55721;DHT22;41626;53.098;6.168;2022-07-23T08:00:04;18.80;99.90
55721;DHT22;41626;53.098;6.168;2022-07-23T08:02:49;18.50;99.90
55721;DHT22;41626;53.098;6.168;2022-07-23T08:05:19;18.50;99.90
55721;DHT22;41626;53.098;6.168;2022-07-23T08:07:45;18.60;99.90
55721;DHT22;41626;53.098;6.168;2022-07-23T08:10:11;18.40;99.90
55721;DHT22;41626;53.098;6.168;2022-07-23T08:12:41;18.40;99.90
55721;DHT22;41626;53.098;6.168;2022-07-23T08:15:07;18.30;99.90
55721;DHT22;41626;53.098;6.168;2022-07-23T08:17:33;18.40;99.90
55721;DHT22;41626;53.098;6.168;2022-07-23T08:19:58;18.20;99.90
55721;DHT22;41626;53.098;6.168;2022-07-23T08:22:24;18.30;99.90
55721;DHT22;41626;53.098;6.168;2022-07-23T08:24:49;18.30;99.90
55721;DHT22;41626;53.098;6.168;2022-07-23T08:27:15;18.20;99.90
55721;DHT22;41626;53.098;6.168;2022-07-23T08:29:41;18.30;99.90
55721;DHT22;41626;53.098;6.168;2022-07-23T08:32:06;18.30;99.90
55721;DHT22;41626;53.098;6.168;2022-07-23T08:34:32;18.30;99.90
55721;DHT22;41626;53.098;6.168;2022-07-23T08:36:58;18.30;99.90
55721;DHT22;41626;53.098;6.168;2022-07-23T08:39:23;18.30;99.90
55721;DHT22;41626;53.098;6.168;2022-07-23T08:41:50;18.30;99.90
55721;DHT22;41626;53.098;6.168;2022-07-23T08:44:16;18.20;99.90
55721;DHT22;41626;53.098;6.168;2022-07-23T08:46:43;18.30;99.90
55721;DHT22;41626;53.098;6.168;2022-07-23T08:49:10;18.20;99.90
55721;DHT22;41626;53.098;6.168;2022-07-23T08:51:35;18.20;99.90
55721;DHT22;41626;53.098;6.168;2022-07-23T08:54:01;18.30;99.90
55721;DHT22;41626;53.098;6.168;2022-07-23T08:56:27;18.30;99.90
55721;DHT22;41626;53.098;6.168;2022-07-23T08:58:56;18.20;99.90
55721;DHT22;41626;53.098;6.168;2022-07-23T09:01:21;18.30;99.90
55721;DHT22;41626;53.098;6.168;2022-07-23T09:03:47;18.40;99.90
55721;DHT22;41626;53.098;6.168;2022-07-23T09:06:12;18.50;99.90
55721;DHT22;41626;53.098;6.168;2022-07-23T09:08:42;18.50;99.90
55721;DHT22;41626;53.098;6.168;2022-07-23T09:11:10;18.70;99.90
55721;DHT22;41626;53.098;6.168;2022-07-23T09:13:53;18.80;99.90
55721;DHT22;41626;53.098;6.168;2022-07-23T09:16:23;18.80;99.90
55721;DHT22;41626;53.098;6.168;2022-07-23T09:18:59;18.80;99.90
55721;DHT22;41626;53.098;6.168;2022-07-23T09:21:27;18.80;99.90
55721;DHT22;41626;53.098;6.168;2022-07-23T09:24:02;19.00;99.90
55721;DHT22;41626;53.098;6.168;2022-07-23T09:29:01;19.00;99.90
55721;DHT22;41626;53.098;6.168;2022-07-23T09:31:33;19.00;99.90
55721;DHT22;41626;53.098;6.168;2022-07-23T09:34:22;19.20;99.90
55721;DHT22;41626;53.098;6.168;2022-07-23T09:36:49;19.30;99.90
55721;DHT22;41626;53.098;6.168;2022-07-23T09:39:21;19.20;99.90
55721;DHT22;41626;53.098;6.168;2022-07-23T09:41:49;19.10;99.90
55721;DHT22;41626;53.098;6.168;2022-07-23T09:44:19;19.40;99.90
55721;DHT22;41626;53.098;6.168;2022-07-23T09:46:47;19.60;99.90
55721;DHT22;41626;53.098;6.168;2022-07-23T09:49:22;19.40;99.90
55721;DHT22;41626;53.098;6.168;2022-07-23T09:51:59;19.40;99.90
55721;DHT22;41626;53.098;6.168;2022-07-23T09:54:37;19.60;99.90
55721;DHT22;41626;53.098;6.168;2022-07-23T09:57:11;19.10;99.90
55721;DHT22;41626;53.098;6.168;2022-07-23T09:59:41;19.10;99.90
55721;DHT22;41626;53.098;6.168;2022-07-23T10:02:09;19.00;99.90
55721;DHT22;41626;53.098;6.168;2022-07-23T10:04:36;18.80;99.90
55721;DHT22;41626;53.098;6.168;2022-07-23T10:07:04;18.90;99.90
55721;DHT22;41626;53.098;6.168;2022-07-23T10:09:32;19.00;99.90
55721;DHT22;41626;53.098;6.168;2022-07-23T10:12:00;18.90;99.90
55721;DHT22;41626;53.098;6.168;2022-07-23T10:14:31;18.90;99.90
55721;DHT22;41626;53.098;6.168;2022-07-23T10:17:00;19.00;99.90
55721;DHT22;41626;53.098;6.168;2022-07-23T10:19:26;18.90;99.90
55721;DHT22;41626;53.098;6.168;2022-07-23T10:21:55;18.90;99.90
55721;DHT22;41626;53.098;6.168;2022-07-23T10:35:53;19.40;99.90
55721;DHT22;41626;53.098;6.168;2022-07-23T10:38:24;19.40;99.90
55721;DHT22;41626;53.098;6.168;2022-07-23T10:40:59;19.20;99.90
55721;DHT22;41626;53.098;6.168;2022-07-23T10:43:25;19.20;99.90
55721;DHT22;41626;53.098;6.168;2022-07-23T10:45:51;19.20;99.90
55721;DHT22;41626;53.098;6.168;2022-07-23T10:48:24;19.40;99.90
55721;DHT22;41626;53.098;6.168;2022-07-23T10:51:09;19.50;99.90
55721;DHT22;41626;53.098;6.168;2022-07-23T10:56:19;20.00;99.90
55721;DHT22;41626;53.098;6.168;2022-07-23T10:59:05;20.20;99.90
55721;DHT22;41626;53.098;6.168;2022-07-23T11:01:38;19.80;99.90
55721;DHT22;41626;53.098;6.168;2022-07-23T11:04:05;19.90;99.90
55721;DHT22;41626;53.098;6.168;2022-07-23T11:09:27;19.90;99.90
55721;DHT22;41626;53.098;6.168;2022-07-23T11:17:25;19.90;99.90
55721;DHT22;41626;53.098;6.168;2022-07-23T11:22:45;20.30;99.90
55721;DHT22;41626;53.098;6.168;2022-07-23T11:25:13;20.30;99.90
55721;DHT22;41626;53.098;6.168;2022-07-23T11:27:44;20.50;99.90
55721;DHT22;41626;53.098;6.168;2022-07-23T11:30:36;20.30;99.90
55721;DHT22;41626;53.098;6.168;2022-07-23T11:35:36;20.20;99.90
55721;DHT22;41626;53.098;6.168;2022-07-23T11:38:19;20.10;99.90
55721;DHT22;41626;53.098;6.168;2022-07-23T11:40:48;20.00;99.90
55721;DHT22;41626;53.098;6.168;2022-07-23T11:43:14;20.10;99.90
55721;DHT22;41626;53.098;6.168;2022-07-23T11:45:43;19.90;99.90
55721;DHT22;41626;53.098;6.168;2022-07-23T11:48:19;20.10;99.90
55721;DHT22;41626;53.098;6.168;2022-07-23T11:50:45;20.50;99.90
55721;DHT22;41626;53.098;6.168;2022-07-23T11:53:12;20.70;99.90
55721;DHT22;41626;53.098;6.168;2022-07-23T11:55:38;20.80;99.90
55721;DHT22;41626;53.098;6.168;2022-07-23T11:58:03;20.80;99.90
55721;DHT22;41626;53.098;6.168;2022-07-23T12:00:30;20.90;99.90
55721;DHT22;41626;53.098;6.168;2022-07-23T12:02:58;21.20;99.90
55721;DHT22;41626;53.098;6.168;2022-07-23T12:05:32;21.00;99.90
55721;DHT22;41626;53.098;6.168;2022-07-23T12:07:59;20.70;99.90
55721;DHT22;41626;53.098;6.168;2022-07-23T12:10:27;20.40;99.90
55721;DHT22;41626;53.098;6.168;2022-07-23T12:12:55;20.40;99.90
55721;DHT22;41626;53.098;6.168;2022-07-23T12:15:28;20.90;99.90
55721;DHT22;41626;53.098;6.168;2022-07-23T12:17:55;21.10;99.90
55721;DHT22;41626;53.098;6.168;2022-07-23T12:20:26;21.20;99.90
55721;DHT22;41626;53.098;6.168;2022-07-23T12:22:55;21.20;99.90
55721;DHT22;41626;53.098;6.168;2022-07-23T12:25:24;21.20;99.90
55721;DHT22;41626;53.098;6.168;2022-07-23T12:28:05;21.50;99.90
55721;DHT22;41626;53.098;6.168;2022-07-23T12:30:40;21.10;99.90
55721;DHT22;41626;53.098;6.168;2022-07-23T12:33:08;21.10;99.90
55721;DHT22;41626;53.098;6.168;2022-07-23T12:35:39;21.10;99.90
55721;DHT22;41626;53.098;6.168;2022-07-23T12:38:12;21.30;99.90
55721;DHT22;41626;53.098;6.168;2022-07-23T12:40:44;21.30;99.90
55721;DHT22;41626;53.098;6.168;2022-07-23T12:43:18;21.30;99.90
55721;DHT22;41626;53.098;6.168;2022-07-23T12:45:53;21.30;99.90
55721;DHT22;41626;53.098;6.168;2022-07-23T12:48:30;21.70;99.90
55721;DHT22;41626;53.098;6.168;2022-07-23T12:53:40;21.40;99.90
55721;DHT22;41626;53.098;6.168;2022-07-23T12:56:18;21.40;99.90
55721;DHT22;41626;53.098;6.168;2022-07-23T12:59:04;21.70;99.90
55721;DHT22;41626;53.098;6.168;2022-07-23T13:01:36;21.50;99.90
55721;DHT22;41626;53.098;6.168;2022-07-23T13:04:10;21.50;99.90
55721;DHT22;41626;53.098;6.168;2022-07-23T13:06:43;21.40;99.90
55721;DHT22;41626;53.098;6.168;2022-07-23T13:09:15;21.50;99.90
55721;DHT22;41626;53.098;6.168;2022-07-23T13:11:41;21.50;99.90
55721;DHT22;41626;53.098;6.168;2022-07-23T13:14:07;21.40;99.90
55721;DHT22;41626;53.098;6.168;2022-07-23T13:16:33;21.40;99.90
55721;DHT22;41626;53.098;6.168;2022-07-23T13:19:00;21.30;99.90
55721;DHT22;41626;53.098;6.168;2022-07-23T13:21:27;21.40;99.90
55721;DHT22;41626;53.098;6.168;2022-07-23T13:23:53;21.70;99.90
55721;DHT22;41626;53.098;6.168;2022-07-23T13:26:19;21.50;99.90
55721;DHT22;41626;53.098;6.168;2022-07-23T13:28:45;21.60;99.90
55721;DHT22;41626;53.098;6.168;2022-07-23T13:31:11;21.50;99.90
55721;DHT22;41626;53.098;6.168;2022-07-23T13:33:36;21.60;99.90
55721;DHT22;41626;53.098;6.168;2022-07-23T13:36:03;21.60;99.90
55721;DHT22;41626;53.098;6.168;2022-07-23T13:38:29;21.30;99.90
55721;DHT22;41626;53.098;6.168;2022-07-23T13:40:54;21.20;99.90
55721;DHT22;41626;53.098;6.168;2022-07-23T13:43:22;21.20;99.90
55721;DHT22;41626;53.098;6.168;2022-07-23T13:45:49;21.70;99.90
55721;DHT22;41626;53.098;6.168;2022-07-23T13:48:15;21.60;99.90
55721;DHT22;41626;53.098;6.168;2022-07-23T13:50:42;21.40;99.90
55721;DHT22;41626;53.098;6.168;2022-07-23T13:53:11;21.40;99.90
55721;DHT22;41626;53.098;6.168;2022-07-23T13:55:38;21.90;99.90
55721;DHT22;41626;53.098;6.168;2022-07-23T13:58:05;22.40;99.90
55721;DHT22;41626;53.098;6.168;2022-07-23T14:00:32;22.30;99.90
55721;DHT22;41626;53.098;6.168;2022-07-23T14:02:59;22.50;99.90
55721;DHT22;41626;53.098;6.168;2022-07-23T14:05:25;22.50;99.90
55721;DHT22;41626;53.098;6.168;2022-07-23T14:07:51;22.40;99.90
55721;DHT22;41626;53.098;6.168;2022-07-23T14:10:19;22.50;99.90
55721;DHT22;41626;53.098;6.168;2022-07-23T14:12:46;22.70;99.90
55721;DHT22;41626;53.098;6.168;2022-07-23T14:15:12;22.90;99.90
55721;DHT22;41626;53.098;6.168;2022-07-23T14:17:42;22.60;99.90
55721;DHT22;41626;53.098;6.168;2022-07-23T14:20:08;22.70;99.90
55721;DHT22;41626;53.098;6.168;2022-07-23T14:22:35;22.80;99.90
55721;DHT22;41626;53.098;6.168;2022-07-23T14:25:00;22.90;99.90
55721;DHT22;41626;53.098;6.168;2022-07-23T14:27:27;22.70;99.90
55721;DHT22;41626;53.098;6.168;2022-07-23T14:29:54;22.60;99.90
55721;DHT22;41626;53.098;6.168;2022-07-23T14:32:20;22.80;99.90
55721;DHT22;41626;53.098;6.168;2022-07-23T14:34:46;22.60;99.90
55721;DHT22;41626;53.098;6.168;2022-07-23T14:37:11;22.70;99.90
55721;DHT22;41626;53.098;6.168;2022-07-23T14:39:41;22.70;99.90
55721;DHT22;41626;53.098;6.168;2022-07-23T14:42:08;22.70;99.90
55721;DHT22;41626;53.098;6.168;2022-07-23T14:44:35;23.00;99.90
55721;DHT22;41626;53.098;6.168;2022-07-23T14:47:01;23.10;99.90
55721;DHT22;41626;53.098;6.168;2022-07-23T14:49:27;23.00;99.90
55721;DHT22;41626;53.098;6.168;2022-07-23T14:51:53;23.10;99.90
55721;DHT22;41626;53.098;6.168;2022-07-23T14:54:18;23.00;99.90
55721;DHT22;41626;53.098;6.168;2022-07-23T14:56:45;23.00;99.90
55721;DHT22;41626;53.098;6.168;2022-07-23T14:59:11;23.00;99.90
55721;DHT22;41626;53.098;6.168;2022-07-23T15:01:37;23.00;99.90
55721;DHT22;41626;53.098;6.168;2022-07-23T15:04:04;23.20;99.90
55721;DHT22;41626;53.098;6.168;2022-07-23T15:06:30;22.90;99.90
55721;DHT22;41626;53.098;6.168;2022-07-23T15:08:56;23.00;99.90
55721;DHT22;41626;53.098;6.168;2022-07-23T15:11:21;23.10;99.90
55721;DHT22;41626;53.098;6.168;2022-07-23T15:13:47;23.00;99.90
55721;DHT22;41626;53.098;6.168;2022-07-23T15:16:13;23.10;99.90
55721;DHT22;41626;53.098;6.168;2022-07-23T15:18:39;23.00;99.90
55721;DHT22;41626;53.098;6.168;2022-07-23T15:21:05;22.90;99.90
55721;DHT22;41626;53.098;6.168;2022-07-23T15:23:30;23.00;99.90
55721;DHT22;41626;53.098;6.168;2022-07-23T15:25:58;23.00;99.90
55721;DHT22;41626;53.098;6.168;2022-07-23T15:28:23;22.90;99.90
55721;DHT22;41626;53.098;6.168;2022-07-23T15:30:50;22.90;99.90
55721;DHT22;41626;53.098;6.168;2022-07-23T15:33:16;22.80;99.90
55721;DHT22;41626;53.098;6.168;2022-07-23T15:35:42;22.60;99.90
55721;DHT22;41626;53.098;6.168;2022-07-23T15:38:08;22.70;99.90
55721;DHT22;41626;53.098;6.168;2022-07-23T15:40:33;22.80;99.90
55721;DHT22;41626;53.098;6.168;2022-07-23T15:43:00;22.40;99.90
55721;DHT22;41626;53.098;6.168;2022-07-23T15:45:25;22.60;99.90
55721;DHT22;41626;53.098;6.168;2022-07-23T15:47:51;22.50;99.90
55721;DHT22;41626;53.098;6.168;2022-07-23T15:50:16;22.10;99.90
55721;DHT22;41626;53.098;6.168;2022-07-23T15:52:42;22.10;99.90
55721;DHT22;41626;53.098;6.168;2022-07-23T15:55:08;22.30;99.90
55721;DHT22;41626;53.098;6.168;2022-07-23T15:57:34;22.30;99.90
55721;DHT22;41626;53.098;6.168;2022-07-23T16:00:00;22.50;99.90
55721;DHT22;41626;53.098;6.168;2022-07-23T16:02:26;22.40;99.90
55721;DHT22;41626;53.098;6.168;2022-07-23T16:04:52;22.40;99.90